Hauptseite
METAR-TAF:

METAR-TAF

Flughäfen :

Flughafen Khartum

Khartum, Sudan

Breite: 15-36N, Länge: 032-33E, Höhe: 382 m

Beobachtung

Neuester Wetterbericht von vor 24 Minuten, um 15:00 UTC
Wind 10 kt aus Nord
Temperatur 42°C
Luftfeuchtigkeit 8%
Luftdruck 1007 hPa
Sichtweite 10 km oder mehr
keine Wolken unter 1500 m und keine Kumulonimbus oder Gewitterwolken

METAR: HSSS 061500Z 36010KT CAVOK 42/01 Q1007 NOSIG

Zeit: 17:24 (15:24 UTC)

Prognose

Neuester Wetterbericht von vor 10 Stunden und 24 Minuten, um 05:00 UTC
Gültige Prognose vom 06 um 06 UTC bis 07 um 12 UTC
Wind 8 kt aus Nord
Sichtweite 10 km oder mehr
keine Wolken unter 1500 m und keine Kumulonimbus oder Gewitterwolken
Zeitweise
vom 06 um 06 UTC bis 06 um 09 UTC
Wind 8 kt aus Süd

TAF: HSSS 060500Z 0606/0712 36008KT CAVOK TEMPO 0606/0609 18008KT

Wetterbeobachtungen und Prognosen von mehr als 4000 Flughäfen (METAR und TAF Bericht).

Die verfügbaren Stationen werden durch gelbe und rote Markierungen auf der Karte dargestellt.

Führen Sie die Maus auf sie, um den Namen der Station zu sehen.

Darauf klicken, um die Beobachtung von Wetterbeobachtungen und Prognosen zu sehen.

Um die Karte zu ändern : klicken Sie auf den grünen Tasten mit einem schwarzen Kreuz Zum Vergrößern, auf den grünen Button mit einem Gedankenstrich zu verkleinern, oder auf die grünen Pfeile für benachbarte Karten.


METAR-TAF: